createdAt,value
2023-05-05T02:05:58.107Z,11.80
2023-05-05T02:08:26.668Z,9.40
2023-05-05T02:10:54.538Z,9.20
2023-05-05T02:13:23.814Z,9.20
2023-05-05T02:15:51.580Z,9.10
2023-05-05T02:18:19.146Z,9.10
2023-05-05T02:20:47.204Z,9.00
2023-05-05T02:23:14.096Z,9.00
2023-05-05T02:25:43.245Z,9.00
2023-05-05T02:28:16.844Z,9.00
2023-05-05T02:30:43.905Z,8.90
2023-05-05T02:33:12.914Z,8.90
2023-05-05T02:35:41.652Z,8.90
2023-05-05T02:53:00.666Z,8.90
2023-05-05T02:55:33.346Z,8.80
2023-05-05T02:58:16.160Z,8.80
2023-05-05T03:01:12.128Z,8.70
2023-05-05T03:03:44.604Z,8.70
2023-05-05T03:06:18.937Z,8.70
2023-05-05T03:09:01.316Z,8.60
2023-05-05T03:14:18.379Z,8.60
2023-05-05T03:16:46.868Z,8.60
2023-05-05T03:19:17.070Z,8.50
2023-05-05T03:21:44.080Z,8.50
2023-05-05T03:24:18.605Z,8.60
2023-05-05T03:26:46.813Z,8.50
2023-05-05T03:29:14.253Z,8.60
2023-05-05T03:31:41.431Z,8.60
2023-05-05T03:34:08.593Z,8.50
2023-05-05T03:36:35.861Z,8.50
2023-05-05T03:39:02.494Z,8.50
2023-05-05T03:41:29.225Z,8.50
2023-05-05T03:43:56.018Z,8.50
2023-05-05T03:46:22.626Z,8.60
2023-05-05T03:48:49.241Z,8.50
2023-05-05T03:51:16.363Z,8.50
2023-05-05T03:53:42.980Z,8.50
2023-05-05T03:56:09.791Z,8.50
2023-05-05T03:58:36.446Z,8.50
2023-05-05T04:01:05.723Z,8.60
2023-05-05T04:03:32.480Z,8.60
2023-05-05T04:05:59.225Z,8.60
2023-05-05T04:08:25.866Z,8.60
2023-05-05T04:10:52.516Z,8.60
2023-05-05T04:13:19.535Z,8.70
2023-05-05T04:15:46.554Z,8.70
2023-05-05T04:18:13.295Z,8.70
2023-05-05T04:20:39.957Z,8.70
2023-05-05T04:23:06.615Z,8.70
2023-05-05T04:25:33.292Z,8.90
2023-05-05T04:27:59.983Z,8.90
2023-05-05T04:30:26.720Z,8.90
2023-05-05T04:55:02.955Z,9.00
2023-05-05T04:57:30.694Z,9.80
2023-05-05T04:59:59.341Z,10.00
2023-05-05T05:02:27.050Z,10.20
2023-05-05T06:25:51.557Z,10.40
2023-05-05T06:38:07.010Z,14.10
2023-05-05T06:57:43.555Z,15.20
2023-05-05T07:00:11.405Z,15.60
2023-05-05T07:02:38.605Z,15.80
2023-05-05T13:55:09.402Z,23.10
2023-05-05T13:57:36.303Z,25.30
2023-05-05T14:00:04.298Z,25.00
2023-05-05T14:31:59.632Z,25.20
2023-05-05T14:34:26.339Z,25.20
2023-05-05T14:36:52.953Z,25.20
2023-05-05T15:55:29.654Z,25.20
2023-05-05T15:57:56.358Z,25.60
2023-05-05T16:00:23.000Z,25.40
2023-05-05T18:54:40.114Z,25.20
2023-05-05T18:59:34.033Z,18.30
2023-05-05T22:02:18.763Z,14.20
2023-05-05T22:04:48.372Z,12.20
2023-05-05T22:07:15.345Z,12.10
2023-05-05T22:09:42.840Z,12.10
2023-05-05T22:12:09.601Z,12.00
